• Join FlightAware (Why Join?)
  • Login
  • US Flag GB Flag 
00:51 EST


 

Airport Tracker/Info


-or-


 

Live Flight TrackerFlight Track Log ✈ AAY862 ✈ 17-Jun-2014 ✈ KPIE - KCID

Flight Track Log - Related Links

Times and Time Zones

All times are in EDT time to prevent confusion due to time zone crossing. See the AAY862 flight status page for this flight to view local times or setup timezone preferences in your user account.

Time Position Orientation Groundspeed Altitude Reporting Facility
EDT Latitude Longitude Course Direction KTS MPH feet Rate Location/Type
14:03 27.9333 -82.7000 331° Northwest 172 198 900  Level Tampa TRACON
14:04 27.9833 -82.6833 16° North 240 276 1,700 1,980 Climbing Tampa TRACON
14:05 28.0500 -82.6833 360° North 285 328 4,900 2,940 Climbing Tampa TRACON
14:07 28.1678 -82.7253 343° North 278 320 9,400 2,460 Climbing Miami Center
14:08 28.2625 -82.7631 341° North 291 335 11,700 1,800 Climbing Jacksonville Center
14:09 28.4911 -83.0430 331° Northwest  Level FlightAware Approximate
14:09 28.3606 -82.7983 342° North 325 374 13,200  Level Jacksonville Center
14:10 28.4672 -82.8383 342° North 368 423 15,600 2,280 Climbing Jacksonville Center
14:11 28.5778 -82.8783 342° North 399 459 17,800 1,800 Climbing Jacksonville Center
14:12 28.6675 -82.9139 341° North 411 473 19,300 1,740 Climbing Jacksonville Center
14:13 28.7928 -82.9589 343° North 423 487 21,300 1,680 Climbing Jacksonville Center
14:14 28.9117 -83.0017 343° North 435 501 22,700 1,500 Climbing Jacksonville Center
14:15 29.0306 -83.0469 342° North 442 509 24,400 1,560 Climbing Jacksonville Center
14:16 29.1472 -83.1114 334° Northwest 448 516 25,900 1,800 Climbing Jacksonville Center
14:17 29.2600 -83.1783 333° Northwest 454 522 28,000 2,040 Climbing Jacksonville Center
14:18 29.3703 -83.2428 333° Northwest 454 522 30,000 1,560 Climbing Jacksonville Center
14:19 29.4789 -83.3100 332° Northwest 449 517 31,200 1,200 Climbing Jacksonville Center
14:20 29.5850 -83.3725 333° Northwest 444 511 32,400 1,140 Climbing Jacksonville Center
14:21 29.6933 -83.4353 333° Northwest 439 505 33,500 780 Climbing Jacksonville Center
14:22 29.8100 -83.5031 333° Northwest 428 493 34,000 180 Climbing Jacksonville Center
14:23 29.9203 -83.5661 334° Northwest 428 493 33,900 -60 Descending Jacksonville Center
14:24 30.0283 -83.6292 333° Northwest 434 499 33,900  Level Jacksonville Center
14:25 30.1367 -83.6947 332° Northwest 429 494 33,900  Level Jacksonville Center
14:26 30.2469 -83.7583 334° Northwest 429 494 33,900  Level Jacksonville Center
14:27 30.3550 -83.8242 332° Northwest 429 494 33,900  Level Jacksonville Center
14:28 30.4631 -83.8878 333° Northwest 429 494 33,900  Level Jacksonville Center
14:29 30.5586 -83.9444 333° Northwest 424 488 34,000  Climbing Jacksonville Center
14:30 30.6644 -84.0108 332° Northwest 424 488 34,000  Level Jacksonville Center
14:31 30.7747 -84.0750 333° Northwest 424 488 34,000  Level Jacksonville Center
14:32 30.8825 -84.1417 332° Northwest 430 495 34,000  Level Jacksonville Center
14:33 30.9883 -84.2061 332° Northwest 430 495 34,000  Level Jacksonville Center
14:35 31.2017 -84.3350 333° Northwest 430 495 34,000  Level Atlanta Center
14:36 31.3058 -84.3986 332° Northwest 430 495 34,000  Level Atlanta Center
14:37 31.3994 -84.4572 332° Northwest 425 489 34,000  Level Atlanta Center
14:38 31.5056 -84.5236 332° Northwest 425 489 34,000  Level Atlanta Center
14:39 31.6119 -84.5875 333° Northwest 425 489 34,000  Level Atlanta Center
14:40 31.7222 -84.6567 332° Northwest 430 495 34,000  Level Atlanta Center
14:41 31.8283 -84.7208 333° Northwest 430 495 34,000  Level Atlanta Center
14:42 31.9322 -84.7853 332° Northwest 430 495 34,000  Level Atlanta Center
14:43 32.0403 -84.8522 332° Northwest 430 495 34,000  Level Atlanta Center
14:44 32.1483 -84.9194 332° Northwest 430 495 34,000  Level Atlanta Center
14:45 32.2544 -84.9844 333° Northwest 430 495 34,000  Level Atlanta Center
14:46 32.3603 -85.0469 333° Northwest 425 489 34,000  Level Atlanta Center
14:47 32.4683 -85.1147 332° Northwest 430 495 34,000  Level Atlanta Center
14:48 32.5742 -85.1800 333° Northwest 425 489 34,000  Level Atlanta Center
14:49 32.6842 -85.2481 332° Northwest 431 496 34,000  Level Atlanta Center
14:50 32.8044 -85.3264 331° Northwest 438 504 34,000  Level Atlanta Center
14:51 32.9061 -85.3922 331° Northwest 433 498 34,000  Level Atlanta Center
14:52 33.0117 -85.4583 332° Northwest 428 493 34,000  Level Atlanta Center
14:53 33.1194 -85.5269 332° Northwest 428 493 34,000  Level Atlanta Center
14:54 33.2189 -85.5908 332° Northwest 428 493 34,000  Level Atlanta Center
14:55 33.3244 -85.6547 333° Northwest 428 493 34,000  Level Atlanta Center
14:56 33.4258 -85.7214 331° Northwest 423 487 34,000  Level Atlanta Center
14:57 33.5314 -85.7931 330° Northwest 428 493 34,000  Level Atlanta Center
14:58 33.6244 -85.8500 333° Northwest 428 493 34,000  Level Atlanta Center
14:59 33.7278 -85.9147 332° Northwest 422 486 34,000  Level Atlanta Center
15:00 33.8289 -85.9844 330° Northwest 417 480 34,000  Level Atlanta Center
15:01 33.9322 -86.0517 332° Northwest 417 480 34,000  Level Atlanta Center
15:02 34.0375 -86.1194 332° Northwest 417 480 34,000  Level Atlanta Center
15:03 34.1367 -86.1847 331° Northwest 412 474 34,000  Level Atlanta Center
15:04 34.2419 -86.2525 332° Northwest 412 474 34,000  Level Atlanta Center
15:05 34.3431 -86.3181 332° Northwest 412 474 34,000  Level Atlanta Center
15:06 34.4383 -86.3861 330° Northwest 420 483 34,000  Level Memphis Center
15:07 34.5408 -86.4533 332° Northwest 420 483 34,000  Level Memphis Center
15:08 34.6644 -86.5347 332° Northwest 420 483 34,000  Level Memphis Center
15:09 34.7658 -86.6025 331° Northwest 421 484 34,000  Level Memphis Center
15:10 34.8672 -86.6697 331° Northwest 420 483 34,000  Level Memphis Center
15:11 34.9694 -86.7383 331° Northwest 420 483 34,000  Level Memphis Center
15:12 35.0733 -86.8081 331° Northwest 422 486 34,000  Level Memphis Center
15:13 35.1975 -86.8925 331° Northwest 424 488 34,000  Level Memphis Center
15:14 35.3008 -86.9625 331° Northwest 424 488 34,000  Level Memphis Center
15:15 35.4069 -87.0361 331° Northwest 425 489 34,000  Level Memphis Center
15:16 35.5108 -87.1069 331° Northwest 425 489 34,000  Level Memphis Center
15:17 35.6158 -87.1778 331° Northwest 425 489 34,000  Level Memphis Center
15:18 35.7200 -87.2500 331° Northwest 425 489 34,000  Level Memphis Center
15:19 35.8244 -87.3206 331° Northwest 424 488 34,000  Level Memphis Center
15:20 35.9475 -87.4067 330° Northwest 425 489 34,000  Level Memphis Center
15:21 36.0522 -87.4792 331° Northwest 425 489 34,000  Level Memphis Center
15:22 36.1564 -87.5542 330° Northwest 426 490 34,000  Level Memphis Center
15:23 36.2400 -87.6644 313° West 435 501 34,000  Level Memphis Center
15:24 36.3181 -87.7786 310° West 434 499 34,000  Level Memphis Center
15:25 36.4003 -87.8889 313° West 433 498 34,000  Level Memphis Center
15:26 36.5106 -87.9556 334° Northwest 435 501 34,000  Level Memphis Center
15:27 36.6194 -88.0253 333° Northwest 433 498 34,000  Level Memphis Center
15:28 36.7272 -88.0947 333° Northwest 433 498 34,000  Level Memphis Center
15:30 36.8347 -88.1639 333° Northwest 433 498 34,000  Level Memphis Center
15:31 36.9622 -88.2464 333° Northwest 433 498 34,000  Level Memphis Center
15:32 37.0681 -88.3167 332° Northwest 432 497 34,000  Level Memphis Center
15:33 37.1744 -88.3850 333° Northwest 432 497 34,000  Level Memphis Center
15:34 37.2806 -88.4547 332° Northwest 431 496 34,000  Level Memphis Center
15:35 37.3872 -88.5239 333° Northwest 432 497 34,000  Level Memphis Center
15:36 37.5150 -88.6106 332° Northwest 432 497 34,000  Level Memphis Center
15:37 37.6225 -88.6797 333° Northwest 432 497 34,000  Level Memphis Center
15:37 37.6869 -88.7228 332° Northwest 434 499 34,000  Level Kansas City Center
15:38 37.8078 -88.8056 332° Northwest 440 506 34,000  Level Kansas City Center
15:40 37.9083 -88.8714 333° Northwest 439 505 34,000  Level Kansas City Center
15:41 38.0156 -88.9419 333° Northwest 439 505 34,000  Level Kansas City Center
15:42 38.1231 -89.0153 332° Northwest 438 504 34,000  Level Kansas City Center
15:43 38.2322 -89.0889 332° Northwest 437 503 34,000  Level Kansas City Center
15:44 38.3378 -89.1603 332° Northwest 439 505 34,000  Level Kansas City Center
15:45 38.4600 -89.2411 333° Northwest 440 506 34,000  Level Kansas City Center
15:46 38.5875 -89.3303 331° Northwest 438 504 34,000  Level Kansas City Center
15:47 38.6964 -89.4044 332° Northwest 438 504 34,000  Level Kansas City Center
15:48 38.8036 -89.4769 332° Northwest 438 504 34,000  Level Kansas City Center
15:49 38.9125 -89.5508 332° Northwest 438 504 34,000  Level Kansas City Center
15:50 39.0206 -89.6272 331° Northwest 438 504 34,000  Level Kansas City Center
15:51 39.1275 -89.7028 331° Northwest 438 504 34,000  Level Kansas City Center
15:52 39.2375 -89.7778 332° Northwest 440 506 34,000  Level Kansas City Center
15:53 39.3439 -89.8522 332° Northwest 440 506 34,000  Level Kansas City Center
15:54 39.4722 -89.9422 332° Northwest 440 506 34,000  Level Kansas City Center
15:55 39.5775 -90.0161 332° Northwest 439 505 34,000  Level Kansas City Center
15:56 39.6839 -90.0911 332° Northwest 438 504 34,000  Level Kansas City Center
15:57 39.7922 -90.1700 331° Northwest 438 504 34,000 -600 Level Kansas City Center
15:58 39.8994 -90.2453 332° Northwest 438 504 32,800 -1,560 Descending Kansas City Center
16:00 40.0694 -90.3681 331° Northwest 436 502 30,100 -1,860 Descending Chicago Center
16:00 40.1350 -90.4164 331° Northwest 438 504 29,000 -1,380 Descending Kansas City Center
16:01 40.2444 -90.4931 332° Northwest 439 505 28,000 -540 Descending Kansas City Center
16:02 40.3536 -90.5717 331° Northwest 442 509 28,000  Level Kansas City Center
16:03 40.3986 -90.6053 330° Northwest 448 516 28,000  Level Chicago Center
16:04 40.5292 -90.6997 331° Northwest 447 514 28,000 -60 Level Chicago Center
16:05 40.6567 -90.7186 354° North 468 539 27,900 -1,320 Descending Chicago Center
16:06 40.7894 -90.7081 North 473 544 25,300 -2,220 Descending Chicago Center
16:07 40.9100 -90.7489 346° North 447 514 23,400 -1,620 Descending Chicago Center
16:08 41.0083 -90.8403 325° Northwest 437 503 22,000 -720 Descending Chicago Center
16:09 41.0947 -90.9258 323° Northwest 405 466 22,000 -660 Level Chicago Center
16:10 41.1953 -91.0256 323° Northwest 382 440 20,700 -1,800 Descending Chicago Center
16:11 41.2858 -91.1136 324° Northwest 397 457 18,300 -2,400 Descending Chicago Center
16:12 41.3744 -91.2008 324° Northwest 398 458 15,700 -2,520 Descending Chicago Center
16:13 41.4603 -91.2861 323° Northwest 390 449 13,100 -1,800 Descending Chicago Center
16:14 41.5389 -91.3639 323° Northwest 376 433 12,000 -1,200 Descending Chicago Center
16:15 41.6214 -91.4461 323° Northwest 319 367 10,700 -1,740 Descending Chicago Center
16:16 41.6878 -91.5119 323° Northwest 303 349 8,500 -2,340 Descending Chicago Center
16:17 41.7264 -91.5983 301° West 277 319 5,900 -2,460 Descending Chicago Center
16:18 41.7578 -91.6897 295° West 273 314 3,500 -1,680 Descending Chicago Center
16:19 41.7956 -91.7689 303° West 268 308 2,500 -660 Descending Chicago Center
16:20 41.8472 -91.8214 323° Northwest 233 268 2,200 -360 Descending Chicago Center
16:21 41.8847 -91.7981 25° Northeast 190 219 1,800 -480 Descending Chicago Center
16:22 41.8853 -91.7428 89° East 181 208 1,300 -540 Descending Chicago Center
16:24 41.8847 -91.7108 90° East  Level Estimated